createdAt,value
2023-01-22T00:03:37.635Z,5.80
2023-01-22T00:07:39.579Z,6.60
2023-01-22T00:11:41.858Z,5.10
2023-01-22T00:15:43.720Z,5.20
2023-01-22T00:19:45.646Z,5.57
2023-01-22T00:23:47.415Z,4.80
2023-01-22T00:27:49.121Z,4.90
2023-01-22T00:31:50.975Z,5.27
2023-01-22T00:35:52.813Z,4.60
2023-01-22T00:39:54.543Z,4.77
2023-01-22T00:43:56.332Z,6.47
2023-01-22T00:47:58.126Z,5.27
2023-01-22T00:52:00.045Z,4.17
2023-01-22T00:56:02.180Z,5.10
2023-01-22T01:00:04.804Z,4.17
2023-01-22T01:04:06.613Z,6.03
2023-01-22T01:08:08.502Z,7.00
2023-01-22T01:12:10.310Z,5.33
2023-01-22T01:16:17.894Z,5.90
2023-01-22T01:20:19.919Z,4.93
2023-01-22T01:24:21.848Z,4.80
2023-01-22T01:28:24.811Z,4.77
2023-01-22T01:32:26.561Z,4.83
2023-01-22T01:36:47.167Z,7.07
2023-01-22T01:40:52.644Z,6.03
2023-01-22T01:45:25.970Z,7.70
2023-01-22T01:50:00.309Z,5.73
2023-01-22T01:54:03.245Z,6.63
2023-01-22T01:58:11.272Z,6.70
2023-01-22T02:02:13.974Z,5.87
2023-01-22T02:06:17.609Z,6.80
2023-01-22T02:10:19.770Z,5.60
2023-01-22T02:14:26.652Z,5.17
2023-01-22T02:18:28.394Z,8.23
2023-01-22T02:22:31.544Z,7.00
2023-01-22T02:26:33.410Z,4.57
2023-01-22T02:30:35.418Z,5.63
2023-01-22T02:34:37.172Z,4.50
2023-01-22T02:38:38.988Z,6.00
2023-01-22T02:42:41.050Z,6.10
2023-01-22T02:46:43.051Z,6.33
2023-01-22T02:50:45.812Z,6.30
2023-01-22T02:54:47.537Z,5.60
2023-01-22T02:58:49.471Z,4.97
2023-01-22T03:02:51.324Z,5.43
2023-01-22T03:06:53.328Z,5.07
2023-01-22T03:10:58.804Z,5.33
2023-01-22T03:15:18.931Z,4.87
2023-01-22T03:19:39.263Z,4.83
2023-01-22T03:23:41.743Z,5.13
2023-01-22T03:28:03.443Z,5.50
2023-01-22T03:32:06.212Z,4.93
2023-01-22T03:36:11.643Z,5.97
2023-01-22T03:40:13.448Z,5.47
2023-01-22T03:44:15.400Z,6.87
2023-01-22T03:48:17.151Z,5.67
2023-01-22T03:52:18.992Z,5.47
2023-01-22T03:56:22.293Z,5.73
2023-01-22T04:00:24.265Z,5.17
2023-01-22T04:04:26.170Z,5.37
2023-01-22T04:08:29.237Z,7.17
2023-01-22T04:12:31.043Z,5.60
2023-01-22T04:16:32.762Z,6.67
2023-01-22T04:20:34.595Z,5.90
2023-01-22T04:24:36.512Z,5.77
2023-01-22T04:28:38.275Z,7.07
2023-01-22T04:32:40.048Z,6.17
2023-01-22T04:36:41.896Z,6.60
2023-01-22T04:40:43.614Z,6.40
2023-01-22T04:44:45.458Z,6.07
2023-01-22T04:48:47.361Z,6.57
2023-01-22T04:52:51.279Z,6.53
2023-01-22T04:56:53.182Z,6.40
2023-01-22T05:00:57.068Z,8.50
2023-01-22T05:04:58.878Z,7.10
2023-01-22T05:09:00.619Z,7.67
2023-01-22T05:13:04.498Z,6.87
2023-01-22T05:17:06.444Z,7.87
2023-01-22T05:21:08.354Z,7.27
2023-01-22T05:25:10.133Z,8.57
2023-01-22T05:29:11.858Z,10.20
2023-01-22T05:33:13.610Z,10.77
2023-01-22T05:37:15.329Z,8.80
2023-01-22T05:41:20.259Z,12.37
2023-01-22T05:45:25.024Z,9.40
2023-01-22T05:49:26.804Z,8.63
2023-01-22T05:53:28.576Z,10.60
2023-01-22T05:57:33.072Z,9.00
2023-01-22T06:01:35.101Z,8.70
2023-01-22T06:05:37.017Z,9.93
2023-01-22T06:09:39.260Z,8.30
2023-01-22T06:13:41.396Z,13.50
2023-01-22T06:17:43.227Z,13.37
2023-01-22T06:21:45.029Z,12.07
2023-01-22T06:25:53.072Z,13.47
2023-01-22T06:29:54.990Z,12.00
2023-01-22T06:33:56.703Z,12.10
2023-01-22T06:37:58.477Z,12.03
2023-01-22T06:42:00.283Z,11.77
2023-01-22T06:46:03.782Z,10.17
2023-01-22T06:50:05.923Z,10.63
2023-01-22T06:54:07.836Z,11.83
2023-01-22T06:58:09.671Z,15.63
2023-01-22T07:02:17.053Z,12.67
2023-01-22T07:06:20.494Z,11.23
2023-01-22T07:10:22.607Z,10.77
2023-01-22T07:14:36.580Z,13.60
2023-01-22T07:18:41.647Z,10.97
2023-01-22T07:22:43.537Z,11.97
2023-01-22T07:26:48.881Z,14.07
2023-01-22T07:30:56.647Z,11.80
2023-01-22T07:34:58.943Z,11.47
2023-01-22T07:39:04.166Z,12.43
2023-01-22T07:43:06.801Z,13.00
2023-01-22T07:47:08.755Z,10.33
2023-01-22T07:51:12.767Z,11.30
2023-01-22T07:55:14.915Z,7.43
2023-01-22T07:59:16.776Z,9.87
2023-01-22T08:03:22.485Z,8.27
2023-01-22T08:07:26.957Z,10.30
2023-01-22T08:11:40.132Z,8.77
2023-01-22T08:15:42.972Z,11.17
2023-01-22T08:19:44.900Z,9.47
2023-01-22T08:23:49.503Z,9.60
2023-01-22T08:27:51.361Z,9.90
2023-01-22T08:31:54.641Z,10.77
2023-01-22T08:36:00.044Z,7.10
2023-01-22T08:40:02.126Z,10.97
2023-01-22T08:44:06.927Z,8.80
2023-01-22T08:48:08.800Z,9.03
2023-01-22T08:52:10.620Z,9.20
2023-01-22T08:56:14.759Z,8.57
2023-01-22T09:00:23.028Z,7.33
2023-01-22T09:04:24.900Z,8.07
2023-01-22T09:08:29.526Z,6.93
2023-01-22T09:12:37.376Z,8.27
2023-01-22T09:16:42.197Z,11.53
2023-01-22T09:21:02.837Z,10.40
2023-01-22T09:25:07.519Z,13.07
2023-01-22T09:29:12.117Z,12.80
2023-01-22T09:33:14.025Z,13.70
2023-01-22T09:37:18.072Z,14.37
2023-01-22T09:41:38.142Z,13.97
2023-01-22T09:45:40.103Z,12.87
2023-01-22T09:50:07.419Z,12.33
2023-01-22T09:54:12.920Z,12.17
2023-01-22T09:58:21.353Z,12.37
2023-01-22T10:02:47.286Z,13.07
2023-01-22T10:06:49.184Z,13.23
2023-01-22T10:10:52.128Z,13.27
2023-01-22T10:14:53.961Z,15.90
2023-01-22T10:19:04.138Z,15.63
2023-01-22T10:23:16.876Z,14.13
2023-01-22T10:27:31.439Z,13.83
2023-01-22T10:31:36.552Z,15.50
2023-01-22T10:35:47.776Z,12.37
2023-01-22T10:39:50.943Z,16.47
2023-01-22T10:43:52.759Z,18.23
2023-01-22T10:48:06.204Z,20.47
2023-01-22T10:52:31.375Z,17.43
2023-01-22T10:56:42.991Z,17.27
2023-01-22T11:00:51.746Z,19.57
2023-01-22T11:04:58.947Z,19.90
2023-01-22T11:09:15.720Z,20.17
2023-01-22T11:13:44.977Z,18.93
2023-01-22T11:18:24.458Z,20.87
2023-01-22T11:22:35.511Z,23.47
2023-01-22T11:26:53.811Z,15.90
2023-01-22T11:31:34.262Z,18.77
2023-01-22T11:35:49.952Z,17.23
2023-01-22T11:40:13.410Z,18.47
2023-01-22T11:44:43.068Z,15.07
2023-01-22T11:49:22.350Z,15.50
2023-01-22T11:53:43.417Z,17.37
2023-01-22T11:58:04.578Z,14.70
2023-01-22T12:02:49.674Z,15.30
2023-01-22T12:07:09.373Z,15.63
2023-01-22T12:11:21.661Z,14.50
2023-01-22T12:15:51.694Z,15.97
2023-01-22T12:20:22.059Z,14.30
2023-01-22T12:24:40.008Z,16.30
2023-01-22T12:29:07.979Z,16.03
2023-01-22T12:33:14.960Z,15.30
2023-01-22T12:37:20.409Z,14.93
2023-01-22T12:42:07.086Z,15.07
2023-01-22T12:46:44.437Z,14.87
2023-01-22T12:51:07.732Z,15.73
2023-01-22T12:55:29.859Z,17.17
2023-01-22T13:00:24.202Z,19.10
2023-01-22T13:04:33.499Z,17.87
2023-01-22T13:08:53.476Z,17.63
2023-01-22T13:13:21.334Z,16.83
2023-01-22T13:17:33.089Z,15.00
2023-01-22T13:21:36.357Z,20.60
2023-01-22T13:25:38.284Z,17.67
2023-01-22T13:29:42.169Z,15.43
2023-01-22T13:34:15.203Z,15.17
2023-01-22T13:38:31.008Z,16.77
2023-01-22T13:42:40.327Z,16.73
2023-01-22T13:46:42.234Z,17.80
2023-01-22T13:51:00.887Z,16.70
2023-01-22T13:55:12.164Z,16.20
2023-01-22T13:59:27.641Z,16.57
2023-01-22T14:03:30.328Z,18.10
2023-01-22T14:07:38.040Z,21.07
2023-01-22T14:11:43.782Z,19.80
2023-01-22T14:16:06.950Z,13.80
2023-01-22T14:20:09.771Z,19.20
2023-01-22T14:24:11.650Z,15.07
2023-01-22T14:28:13.587Z,17.33
2023-01-22T14:32:15.405Z,15.47
2023-01-22T14:36:18.535Z,14.70
2023-01-22T14:40:21.864Z,14.50
2023-01-22T14:44:23.720Z,17.40
2023-01-22T14:48:25.700Z,14.67
2023-01-22T14:52:27.455Z,16.00
2023-01-22T14:56:29.241Z,16.43
2023-01-22T15:00:30.971Z,18.37
2023-01-22T15:04:32.785Z,17.73
2023-01-22T15:08:34.601Z,20.20
2023-01-22T15:12:36.653Z,15.50
2023-01-22T15:16:39.174Z,15.47
2023-01-22T15:20:41.008Z,14.33
2023-01-22T15:24:43.833Z,16.90
2023-01-22T15:28:45.825Z,16.43
2023-01-22T15:32:47.695Z,14.17
2023-01-22T15:36:49.760Z,19.73
2023-01-22T15:41:21.699Z,11.53
2023-01-22T15:45:23.619Z,10.13
2023-01-22T15:49:36.653Z,11.50
2023-01-22T15:53:38.734Z,15.30
2023-01-22T15:57:40.958Z,11.57
2023-01-22T16:01:48.377Z,10.70
2023-01-22T16:06:26.535Z,10.60
2023-01-22T16:10:21.420Z,10.73
2023-01-22T16:14:23.677Z,10.87
2023-01-22T16:18:28.991Z,12.07
2023-01-22T16:22:31.003Z,12.10
2023-01-22T16:26:42.440Z,11.77
2023-01-22T16:30:44.662Z,11.17
2023-01-22T16:34:46.769Z,11.37
2023-01-22T16:38:53.488Z,11.93
2023-01-22T16:43:05.141Z,11.60
2023-01-22T16:47:11.399Z,10.07
2023-01-22T16:51:30.835Z,9.13
2023-01-22T16:55:32.954Z,11.60
2023-01-22T16:59:38.089Z,11.33
2023-01-22T17:03:42.697Z,8.60
2023-01-22T17:07:44.689Z,11.60
2023-01-22T17:11:51.608Z,10.33
2023-01-22T17:15:56.366Z,11.57
2023-01-22T17:20:05.626Z,11.23
2023-01-22T17:24:08.088Z,10.53
2023-01-22T17:28:12.262Z,8.97
2023-01-22T17:32:14.131Z,10.83
2023-01-22T17:36:16.983Z,9.37
2023-01-22T17:40:21.727Z,10.57
2023-01-22T17:44:26.787Z,12.63
2023-01-22T17:48:28.683Z,9.87
2023-01-22T17:52:33.199Z,11.93
2023-01-22T17:56:38.984Z,12.33
2023-01-22T18:00:41.385Z,13.20
2023-01-22T18:04:45.784Z,11.93
2023-01-22T18:08:47.855Z,13.23
2023-01-22T18:13:07.114Z,12.40
2023-01-22T18:17:14.031Z,13.13
2023-01-22T18:21:24.474Z,12.03
2023-01-22T18:25:28.150Z,14.03
2023-01-22T18:29:30.343Z,13.53
2023-01-22T18:33:37.771Z,14.20
2023-01-22T18:37:51.080Z,11.83
2023-01-22T18:41:55.140Z,14.10
2023-01-22T18:46:07.381Z,14.60
2023-01-22T18:50:19.830Z,15.03
2023-01-22T18:54:50.221Z,15.27
2023-01-22T18:58:56.796Z,15.07
2023-01-22T19:03:08.516Z,15.23
2023-01-22T19:07:28.805Z,16.40
2023-01-22T19:11:34.925Z,15.20
2023-01-22T19:15:42.074Z,15.57
2023-01-22T19:19:44.088Z,14.67
2023-01-22T19:24:03.224Z,13.90
2023-01-22T19:28:08.633Z,13.67
2023-01-22T19:32:14.427Z,14.73
2023-01-22T19:36:27.485Z,16.90
2023-01-22T19:40:35.507Z,14.97
2023-01-22T19:44:41.094Z,15.33
2023-01-22T19:48:46.478Z,16.33
2023-01-22T19:52:56.908Z,15.20
2023-01-22T19:56:58.822Z,15.00
2023-01-22T20:01:00.843Z,12.57
2023-01-22T20:05:02.834Z,15.00
2023-01-22T20:09:07.506Z,16.53
2023-01-22T20:13:13.301Z,15.93
2023-01-22T20:17:16.712Z,12.00
2023-01-22T20:21:19.179Z,12.70
2023-01-22T20:25:33.804Z,15.33
2023-01-22T20:29:45.661Z,13.67
2023-01-22T20:33:50.453Z,11.90
2023-01-22T20:37:52.605Z,12.80
2023-01-22T20:41:54.845Z,13.70
2023-01-22T20:46:04.992Z,14.20
2023-01-22T20:50:07.770Z,11.00
2023-01-22T20:54:10.002Z,16.17
2023-01-22T20:58:11.818Z,14.83
2023-01-22T21:02:24.962Z,14.23
2023-01-22T21:06:30.267Z,9.30
2023-01-22T21:10:31.977Z,17.83
2023-01-22T21:15:18.982Z,12.27
2023-01-22T21:20:47.958Z,10.70
2023-01-22T21:24:24.485Z,10.67
2023-01-22T21:28:26.415Z,12.17
2023-01-22T21:32:30.677Z,13.87
2023-01-22T21:36:35.848Z,13.90
2023-01-22T21:40:37.709Z,11.50
2023-01-22T21:44:58.262Z,12.80
2023-01-22T21:49:16.258Z,11.13
2023-01-22T21:53:18.207Z,11.83
2023-01-22T21:57:21.476Z,10.73
2023-01-22T22:01:34.025Z,14.40
2023-01-22T22:05:35.995Z,11.37
2023-01-22T22:09:37.889Z,10.67
2023-01-22T22:13:39.818Z,13.13
2023-01-22T22:17:41.783Z,12.17
2023-01-22T22:21:43.743Z,13.87
2023-01-22T22:25:49.048Z,11.83
2023-01-22T22:29:54.431Z,10.83
2023-01-22T22:33:56.753Z,11.27
2023-01-22T22:37:58.555Z,12.17
2023-01-22T22:42:03.251Z,11.47
2023-01-22T22:46:07.727Z,12.40
2023-01-22T22:50:10.445Z,13.13
2023-01-22T22:54:15.976Z,14.47
2023-01-22T22:58:18.651Z,13.53
2023-01-22T23:02:21.209Z,14.13
2023-01-22T23:06:29.500Z,14.73
2023-01-22T23:10:31.484Z,13.67
2023-01-22T23:14:33.344Z,14.30
2023-01-22T23:18:35.424Z,15.87
2023-01-22T23:22:37.209Z,14.90
2023-01-22T23:26:39.103Z,15.30
2023-01-22T23:30:41.010Z,16.97
2023-01-22T23:34:42.848Z,18.47
2023-01-22T23:38:45.102Z,18.90
2023-01-22T23:42:50.247Z,17.97
2023-01-22T23:46:53.235Z,17.80
2023-01-22T23:50:55.038Z,17.47
2023-01-22T23:54:58.091Z,18.40
2023-01-22T23:58:59.980Z,20.70
